EST,Max TemperatureF,Mean TemperatureF,Min TemperatureF,Max Dew PointF,MeanDew PointF,Min DewpointF,Max Humidity, Mean Humidity, Min Humidity, Max Sea Level PressureIn, Mean Sea Level PressureIn, Min Sea Level PressureIn, Max VisibilityMiles, Mean VisibilityMiles, Min VisibilityMiles, Max Wind SpeedMPH, Mean Wind SpeedMPH, Max Gust SpeedMPH,PrecipitationIn, CloudCover, Events, WindDirDegrees
2012-12-1,62,47,32,40,34,28,82,64,46,30.43,30.37,30.32,10,10,10,12,1,14,0.00,0,,126
2012-12-2,67,51,35,47,40,32,89,67,45,30.39,30.30,30.20,10,10,8,13,3,16,T,2,,210
2012-12-3,73,62,51,51,49,46,83,66,49,30.28,30.25,30.21,10,10,10,12,5,16,0.00,4,,263
2012-12-4,72,58,44,48,46,43,93,67,41,30.30,30.22,30.12,10,10,7,15,3,20,0.00,1,,242
2012-12-5,62,53,43,49,33,20,60,40,19,30.27,30.18,30.08,10,10,10,18,8,22,T,2,Rain,302
2012-12-6,47,39,31,33,27,24,78,62,45,30.38,30.29,30.23,10,10,10,12,5,,T,3,,124
2012-12-7,51,46,40,43,36,31,89,73,56,30.22,30.12,30.02,10,10,8,8,3,9,T,6,,136
2012-12-8,68,54,39,49,44,37,100,76,52,30.04,29.99,29.94,10,8,0,17,6,23,0.00,2,Fog,239
2012-12-9,63,53,43,52,49,42,100,83,65,30.14,30.05,29.97,10,7,0,18,6,23,0.00,6,Fog,137
2012-12-10,62,56,49,56,53,40,100,84,67,29.95,29.76,29.64,10,5,0,24,2,30,0.03,7,Fog-Rain,236
2012-12-11,49,42,34,38,29,23,71,60,49,30.24,30.01,29.78,10,10,10,23,10,30,0.00,2,,301
2012-12-12,44,39,34,28,26,23,70,60,49,30.39,30.34,30.24,10,10,10,12,4,14,0.00,3,,20
2012-12-13,49,39,28,26,22,17,72,51,29,30.47,30.41,30.38,10,10,10,9,3,,0.00,0,,3
2012-12-14,61,42,23,26,21,18,75,48,21,30.39,30.32,30.25,10,10,10,15,3,29,0.00,0,,306
2012-12-15,55,44,33,32,26,22,64,48,32,30.28,30.20,30.08,10,10,10,12,4,14,T,3,Rain,131
2012-12-16,53,47,40,49,40,33,100,91,82,30.08,29.98,29.87,10,7,4,12,2,14,0.18,7,Rain,279
2012-12-17,55,50,44,50,47,43,100,89,77,29.86,29.77,29.62,10,7,0,15,3,18,0.03,3,Fog-Rain,71
2012-12-18,54,47,40,44,36,28,80,65,50,29.90,29.75,29.62,10,10,10,24,10,32,0.00,4,,258
2012-12-19,64,52,40,32,29,25,62,43,23,30.15,29.99,29.87,10,10,10,32,10,41,0.00,0,,301
2012-12-20,45,42,38,40,35,31,100,81,62,30.20,29.88,29.48,10,7,2,13,5,,0.49,5,Rain,195
2012-12-21,45,39,33,35,22,17,89,68,47,29.80,29.62,29.48,10,10,9,37,20,54,T,8,Snow,280
2012-12-22,42,38,33,19,16,11,56,44,32,30.12,30.01,29.80,10,10,10,33,18,47,0.00,3,,294
2012-12-23,55,43,31,31,20,14,57,42,26,30.13,30.05,29.96,10,10,10,22,9,29,0.00,0,,256
2012-12-24,45,42,38,39,37,33,100,79,58,30.00,29.95,29.89,10,4,0,15,3,20,0.52,7,Fog-Rain,131
2012-12-25,53,45,37,41,37,35,92,71,50,30.16,30.07,29.95,10,9,3,15,4,22,0.00,4,,124
2012-12-26,42,38,33,34,32,30,96,85,73,30.12,29.76,29.54,10,6,1,24,7,33,1.20,8,Rain-Snow,1
2012-12-27,42,36,30,29,24,21,70,60,50,30.12,29.91,29.62,10,10,10,35,16,48,0.00,6,,291
2012-12-28,40,34,28,26,23,21,75,63,50,30.19,30.10,29.99,10,10,10,12,4,14,T,3,Rain,294
2012-12-29,47,40,33,36,29,21,92,73,53,29.98,29.83,29.66,10,8,2,30,11,40,0.13,8,Rain-Snow,183
2012-12-30,40,35,30,21,17,15,56,47,37,30.40,30.26,29.99,10,10,9,29,14,37,T,3,Snow,294
2012-12-31,45,37,28,19,16,13,63,45,27,30.38,30.25,30.09,10,10,10,17,9,23,0.00,2,,280